Time;durP1;ratioP1;P1;durP2;ratioP2;P2;SDS_P1;SDS_P2;PMS_P1;PMS_P2;Temp;Humidity;BMP_temperature;BMP_pressure;BME280_temperature;BME280_humidity;BME280_pressure;Samples;Min_cycle;Max_cycle;Signal;HPM_P1;HPM_P2
2022/07/29 00:01:54;;;;;;;10.45;3.63;;;17.10;99.90;;;;;;4875810;29;20518;-73
2022/07/29 00:04:22;;;;;;;10.52;4.10;;;17.10;99.90;;;;;;4875817;29;20049;-74
2022/07/29 00:06:49;;;;;;;4.25;3.03;;;17.10;99.90;;;;;;4877182;29;20113;-74
2022/07/29 00:09:16;;;;;;;3.53;2.85;;;17.10;99.90;;;;;;4877337;29;20083;-74
2022/07/29 00:11:43;;;;;;;5.57;3.15;;;17.10;99.90;;;;;;4877196;29;20075;-74
2022/07/29 00:14:11;;;;;;;6.85;3.75;;;17.10;99.90;;;;;;4877093;29;20528;-73
2022/07/29 00:16:38;;;;;;;6.47;3.00;;;17.10;99.90;;;;;;4875895;29;20433;-74
2022/07/29 00:19:05;;;;;;;6.05;3.17;;;17.10;99.90;;;;;;4876823;29;20095;-74
2022/07/29 00:21:33;;;;;;;6.85;2.50;;;17.10;99.90;;;;;;4876970;29;20110;-73
2022/07/29 00:24:00;;;;;;;6.38;2.58;;;17.10;99.90;;;;;;4890905;29;20415;-73
2022/07/29 00:26:31;;;;;;;4.38;2.47;;;17.10;99.90;;;;;;4891276;29;20056;-74
2022/07/29 00:28:59;;;;;;;95.55;80.68;;;17.10;99.90;;;;;;4876649;29;20081;-73
2022/07/29 00:31:26;;;;;;;4.07;3.17;;;17.10;99.90;;;;;;4876936;29;20144;-74
2022/07/29 00:33:54;;;;;;;3.72;1.98;;;17.10;99.90;;;;;;4876805;29;20049;-73
2022/07/29 00:36:20;;;;;;;3.25;1.90;;;17.10;99.90;;;;;;4876543;29;20145;-73
2022/07/29 00:38:49;;;;;;;4.28;2.05;;;17.10;99.90;;;;;;4876966;29;20057;-73
2022/07/29 00:41:17;;;;;;;4.97;2.05;;;17.10;99.90;;;;;;4877209;29;20089;-73
2022/07/29 00:43:44;;;;;;;4.70;1.65;;;17.10;99.90;;;;;;4875565;29;20061;-73
2022/07/29 00:46:12;;;;;;;3.72;2.05;;;17.10;99.90;;;;;;4890995;29;20053;-73
2022/07/29 00:48:39;;;;;;;3.50;1.63;;;17.00;99.90;;;;;;4875491;29;20159;-73
2022/07/29 00:51:07;;;;;;;2.58;1.70;;;17.10;99.90;;;;;;4875575;29;20056;-73
2022/07/29 00:53:36;;;;;;;3.13;1.67;;;17.10;99.90;;;;;;4876514;29;20097;-73
2022/07/29 00:56:05;;;;;;;2.50;1.80;;;17.00;99.90;;;;;;4876470;29;20231;-73
2022/07/29 00:58:32;;;;;;;5.80;2.00;;;17.00;99.90;;;;;;4877978;29;20135;-73
2022/07/29 01:00:59;;;;;;;3.83;1.73;;;17.00;99.90;;;;;;4880038;29;20510;-73
2022/07/29 01:03:27;;;;;;;2.58;1.75;;;17.00;99.90;;;;;;4880297;29;20053;-73
2022/07/29 01:05:55;;;;;;;4.88;2.08;;;17.00;99.90;;;;;;4878911;29;20459;-74
2022/07/29 01:08:23;;;;;;;2.65;1.95;;;17.00;99.90;;;;;;4880297;29;20073;-73
2022/07/29 01:10:53;;;;;;;6.55;2.10;;;17.00;99.90;;;;;;4878858;29;20061;-73
2022/07/29 01:13:22;;;;;;;2.42;1.70;;;16.90;99.90;;;;;;4879836;29;20068;-73
2022/07/29 01:16:00;;;;;;;6.53;2.38;;;16.90;99.90;;;;;;4894328;29;20458;-73
2022/07/29 01:18:31;;;;;;;5.47;1.92;;;16.80;99.90;;;;;;4879819;29;20125;-73
2022/07/29 01:21:25;;;;;;;2.40;2.00;;;16.90;99.90;;;;;;4879483;29;20080;-73
2022/07/29 01:24:23;;;;;;;4.70;2.60;;;16.90;99.90;;;;;;4862919;29;20060;-73
2022/07/29 01:26:58;;;;;;;3.05;2.45;;;16.90;99.90;;;;;;4878694;29;20108;-73
2022/07/29 01:29:29;;;;;;;2.90;2.42;;;16.90;99.90;;;;;;4880019;29;20399;-73
2022/07/29 01:32:02;;;;;;;3.05;2.28;;;16.90;99.90;;;;;;4893809;29;20045;-73
2022/07/29 01:34:36;;;;;;;3.38;2.33;;;16.90;99.90;;;;;;4893763;29;20100;-73
2022/07/29 01:37:16;;;;;;;4.72;2.72;;;16.90;99.90;;;;;;4879746;29;20053;-73
2022/07/29 01:39:46;;;;;;;3.33;2.40;;;17.00;99.90;;;;;;4893703;29;20063;-74
2022/07/29 01:42:25;;;;;;;5.22;3.05;;;17.00;99.90;;;;;;4879389;29;20059;-73
2022/07/29 01:44:58;;;;;;;4.50;2.70;;;17.00;99.90;;;;;;4879300;29;20072;-73
2022/07/29 01:47:32;;;;;;;4.55;2.70;;;17.00;99.90;;;;;;4878035;29;20049;-73
2022/07/29 01:50:01;;;;;;;4.63;2.30;;;17.10;99.90;;;;;;4879159;29;20135;-73
2022/07/29 01:52:37;;;;;;;4.32;2.58;;;17.10;99.90;;;;;;4893425;29;20057;-73
2022/07/29 01:55:13;;;;;;;4.82;2.58;;;17.10;99.90;;;;;;4893312;29;20202;-73
2022/07/29 01:57:43;;;;;;;3.80;2.70;;;17.10;99.90;;;;;;4893454;29;20143;-73
2022/07/29 02:00:13;;;;;;;4.15;2.47;;;17.20;99.90;;;;;;4878900;29;20069;-73
2022/07/29 02:02:47;;;;;;;4.30;2.10;;;17.20;99.90;;;;;;4877478;29;20072;-73
2022/07/29 02:05:19;;;;;;;4.75;2.45;;;17.20;99.90;;;;;;4878805;29;20065;-73
2022/07/29 02:07:49;;;;;;;5.28;2.70;;;17.30;99.90;;;;;;4878746;29;20049;-73
2022/07/29 02:10:17;;;;;;;3.10;2.20;;;17.30;99.90;;;;;;4892441;29;20411;-73
2022/07/29 02:12:45;;;;;;;2.63;2.33;;;17.30;99.90;;;;;;4878702;29;20052;-74
2022/07/29 02:15:36;;;;;;;2.92;2.10;;;17.30;99.90;;;;;;4890543;29;20099;-72
2022/07/29 02:18:07;;;;;;;2.80;1.90;;;17.40;99.90;;;;;;4878240;29;20499;-75
2022/07/29 02:20:35;;;;;;;5.13;2.35;;;17.40;99.90;;;;;;4878723;29;20057;-75
2022/07/29 02:23:04;;;;;;;3.90;1.95;;;17.40;99.90;;;;;;4877282;29;20077;-73
2022/07/29 02:25:33;;;;;;;4.68;2.22;;;17.40;99.90;;;;;;4878756;29;20458;-72
2022/07/29 02:28:01;;;;;;;4.80;2.10;;;17.40;99.90;;;;;;4878705;29;20063;-72
2022/07/29 02:30:29;;;;;;;4.72;1.83;;;17.40;99.90;;;;;;4878105;29;20071;-73
2022/07/29 02:32:59;;;;;;;3.70;2.15;;;17.40;99.90;;;;;;4892513;29;20437;-73
2022/07/29 02:35:27;;;;;;;2.42;2.15;;;17.40;99.90;;;;;;4878793;29;20368;-74
2022/07/29 02:40:42;;;;;;;2.85;1.83;;;17.40;99.90;;;;;;4892467;29;20061;-72
2022/07/29 02:43:10;;;;;;;4.25;2.20;;;17.40;99.90;;;;;;4892478;29;20168;-73
2022/07/29 02:45:38;;;;;;;3.88;1.67;;;17.50;99.90;;;;;;4878078;29;20049;-73
2022/07/29 02:48:14;;;;;;;3.08;2.03;;;17.50;99.90;;;;;;4892439;29;20082;-73
2022/07/29 02:50:48;;;;;;;5.95;3.10;;;17.50;99.90;;;;;;4878106;29;20064;-73
2022/07/29 02:53:19;;;;;;;4.13;2.63;;;17.50;99.90;;;;;;4878164;29;20466;-73
2022/07/29 02:55:50;;;;;;;8.65;2.92;;;17.50;99.90;;;;;;4877622;29;20482;-74
2022/07/29 02:58:28;;;;;;;6.07;2.53;;;17.50;99.90;;;;;;4876881;29;20053;-74
2022/07/29 03:00:57;;;;;;;3.83;2.15;;;17.50;99.90;;;;;;4892052;29;20144;-74
2022/07/29 03:03:33;;;;;;;3.90;2.08;;;17.50;99.90;;;;;;4878240;29;20104;-75
2022/07/29 03:06:03;;;;;;;5.50;2.17;;;17.60;99.90;;;;;;4877946;29;20065;-75
2022/07/29 03:08:32;;;;;;;5.68;1.90;;;17.60;99.90;;;;;;4878245;29;20059;-75
2022/07/29 03:11:01;;;;;;;3.95;1.85;;;17.60;99.90;;;;;;4877874;29;20057;-74
2022/07/29 03:13:30;;;;;;;3.30;2.15;;;17.60;99.90;;;;;;4892147;29;20057;-75
2022/07/29 03:15:58;;;;;;;6.57;2.33;;;17.70;99.90;;;;;;4876151;29;20049;-74
2022/07/29 03:18:27;;;;;;;5.07;2.38;;;17.70;99.90;;;;;;4876081;29;20076;-74
2022/07/29 03:20:55;;;;;;;6.18;2.50;;;17.70;99.90;;;;;;4877392;29;20056;-75
2022/07/29 03:23:23;;;;;;;2.05;1.67;;;17.80;99.90;;;;;;4876419;29;20081;-75
2022/07/29 03:25:51;;;;;;;8.98;2.03;;;17.80;99.90;;;;;;4877149;29;20522;-74
2022/07/29 03:28:18;;;;;;;3.30;2.25;;;17.80;99.90;;;;;;4876324;29;20081;-75
2022/07/29 03:30:45;;;;;;;4.55;2.40;;;17.80;99.90;;;;;;4877551;29;20056;-74
2022/07/29 03:33:13;;;;;;;2.70;1.65;;;17.80;99.90;;;;;;4891597;29;20049;-74
2022/07/29 03:35:41;;;;;;;7.38;2.50;;;17.90;99.90;;;;;;4876216;29;20526;-74
2022/07/29 03:38:09;;;;;;;3.80;1.90;;;17.90;99.90;;;;;;4876641;29;20518;-74
2022/07/29 03:40:43;;;;;;;1.70;1.60;;;18.00;99.90;;;;;;4877589;29;20065;-74
2022/07/29 03:43:12;;;;;;;3.53;2.15;;;18.00;99.90;;;;;;4876079;29;20057;-74
2022/07/29 03:45:43;;;;;;;4.65;1.70;;;18.10;99.90;;;;;;4877590;29;20076;-73
2022/07/29 03:48:14;;;;;;;3.13;1.77;;;18.10;99.90;;;;;;4877492;29;20085;-73
2022/07/29 03:50:43;;;;;;;2.40;1.77;;;18.20;99.90;;;;;;4876409;29;20135;-73
2022/07/29 03:53:11;;;;;;;3.78;1.70;;;18.30;99.90;;;;;;4891855;29;20049;-73
2022/07/29 03:55:43;;;;;;;3.10;2.28;;;18.40;99.90;;;;;;4891546;29;20510;-73
2022/07/29 03:58:13;;;;;;;7.77;1.70;;;18.40;99.90;;;;;;4875907;29;20434;-73
2022/07/29 04:00:42;;;;;;;6.95;2.20;;;18.50;99.90;;;;;;4877156;29;20095;-73
2022/07/29 04:03:10;;;;;;;1.63;1.23;;;18.50;99.90;;;;;;4891464;29;20121;-73
2022/07/29 04:05:37;;;;;;;5.75;2.60;;;18.60;99.90;;;;;;4877253;29;20075;-73
2022/07/29 04:08:06;;;;;;;5.40;1.90;;;18.60;99.90;;;;;;4877423;29;20061;-73
2022/07/29 04:10:33;;;;;;;4.45;2.03;;;18.60;99.90;;;;;;4877038;29;20056;-73
2022/07/29 04:13:00;;;;;;;7.55;2.17;;;18.70;99.90;;;;;;4877112;29;20148;-73
2022/07/29 04:15:28;;;;;;;3.17;1.45;;;18.70;99.90;;;;;;4891429;29;20529;-73
2022/07/29 04:17:55;;;;;;;4.78;2.05;;;18.70;99.90;;;;;;4891580;29;20507;-73
2022/07/29 04:20:22;;;;;;;2.50;1.70;;;18.80;99.90;;;;;;4891017;29;20056;-73
2022/07/29 04:22:50;;;;;;;4.45;1.85;;;18.90;99.90;;;;;;4891046;29;20084;-73
2022/07/29 04:25:18;;;;;;;2.90;1.90;;;19.00;99.90;;;;;;4877040;29;20055;-73
2022/07/29 04:30:26;;;;;;;6.90;1.90;;;19.10;99.90;;;;;;4891133;29;20053;-73
2022/07/29 04:32:53;;;;;;;5.07;1.65;;;19.20;99.90;;;;;;4877054;29;20061;-73
2022/07/29 04:35:21;;;;;;;7.28;2.20;;;19.30;99.90;;;;;;4880456;29;20068;-74
2022/07/29 04:37:48;;;;;;;7.28;1.80;;;19.30;99.90;;;;;;4880464;29;20610;-74
2022/07/29 04:40:15;;;;;;;7.25;1.80;;;19.40;99.90;;;;;;4880415;29;20508;-73
2022/07/29 04:42:44;;;;;;;2.17;1.65;;;19.40;99.90;;;;;;4894479;29;20072;-73
2022/07/29 04:45:11;;;;;;;7.57;1.40;;;19.50;99.90;;;;;;4880248;29;20065;-73
2022/07/29 04:47:38;;;;;;;3.78;1.42;;;19.60;99.90;;;;;;4894358;29;20529;-74
2022/07/29 04:50:06;;;;;;;4.20;2.38;;;19.70;99.90;;;;;;4879833;29;20152;-75
2022/07/29 04:52:35;;;;;;;7.60;1.92;;;19.80;99.90;;;;;;4878797;29;20060;-74
2022/07/29 04:55:02;;;;;;;5.05;1.63;;;19.80;99.90;;;;;;4878461;29;20045;-74
2022/07/29 04:57:31;;;;;;;2.53;1.33;;;19.80;99.90;;;;;;4894168;29;20778;-74
2022/07/29 04:59:59;;;;;;;4.18;1.48;;;19.90;99.90;;;;;;4880158;29;20388;-74
2022/07/29 05:02:26;;;;;;;5.20;2.10;;;19.90;99.90;;;;;;4894154;29;20560;-74
2022/07/29 05:04:53;;;;;;;8.18;2.28;;;19.90;99.90;;;;;;4878646;29;20113;-74
2022/07/29 05:07:21;;;;;;;3.92;1.48;;;20.00;99.90;;;;;;4880285;29;20406;-73
2022/07/29 05:09:48;;;;;;;4.18;1.60;;;20.00;99.90;;;;;;4878778;29;20081;-74
2022/07/29 05:12:15;;;;;;;5.57;1.45;;;20.00;99.90;;;;;;4879823;29;20057;-74
2022/07/29 05:14:42;;;;;;;4.35;2.10;;;20.10;99.90;;;;;;4879615;29;20146;-74
2022/07/29 05:17:11;;;;;;;2.42;2.03;;;20.10;99.90;;;;;;4878198;29;20062;-73
2022/07/29 05:19:38;;;;;;;5.35;2.10;;;20.20;99.90;;;;;;4879838;29;20196;-73
2022/07/29 05:22:05;;;;;;;2.30;1.30;;;20.30;99.90;;;;;;4879692;29;20140;-73
2022/07/29 05:24:32;;;;;;;2.15;1.80;;;20.30;99.90;;;;;;4878519;29;20082;-73
2022/07/29 05:26:59;;;;;;;2.55;1.92;;;20.30;99.90;;;;;;4893867;29;20514;-74
2022/07/29 05:29:26;;;;;;;3.50;1.65;;;20.40;99.90;;;;;;4862839;29;20059;-73
2022/07/29 05:31:54;;;;;;;3.42;1.58;;;20.50;99.90;;;;;;4878026;29;20049;-74
2022/07/29 05:34:22;;;;;;;4.45;1.38;;;20.60;99.90;;;;;;4893669;29;20463;-74
2022/07/29 05:36:49;;;;;;;2.92;1.10;;;20.70;99.90;;;;;;4879345;29;20049;-74
2022/07/29 05:39:16;;;;;;;2.42;1.42;;;20.80;99.90;;;;;;4879458;29;20101;-74
2022/07/29 05:41:43;;;;;;;7.97;4.35;;;20.90;99.90;;;;;;4879178;29;20065;-74
2022/07/29 05:44:13;;;;;;;3.38;1.48;;;21.00;99.90;;;;;;4879002;29;20530;-74
2022/07/29 05:46:40;;;;;;;3.67;1.35;;;21.10;99.90;;;;;;4878357;29;20053;-74
2022/07/29 05:49:07;;;;;;;6.30;1.48;;;21.10;99.90;;;;;;4893519;29;20080;-74
2022/07/29 05:51:36;;;;;;;3.47;1.25;;;21.20;99.90;;;;;;4879263;29;20065;-75
2022/07/29 05:54:04;;;;;;;2.50;0.98;;;21.30;99.90;;;;;;4893477;29;20108;-74
2022/07/29 05:56:31;;;;;;;2.97;1.25;;;21.50;99.90;;;;;;4893719;29;20072;-75
2022/07/29 05:58:58;;;;;;;1.88;0.70;;;21.60;99.90;;;;;;4893688;29;20053;-74
2022/07/29 06:01:25;;;;;;;2.40;1.20;;;21.90;99.90;;;;;;4877662;29;20423;-74
2022/07/29 06:03:53;;;;;;;4.78;1.35;;;22.10;99.90;;;;;;4878769;29;20156;-75
2022/07/29 06:06:23;;;;;;;7.80;1.30;;;22.20;99.90;;;;;;4878766;29;20072;-74
2022/07/29 06:08:52;;;;;;;8.25;1.13;;;22.40;99.90;;;;;;4877190;29;20156;-75
2022/07/29 06:11:19;;;;;;;3.60;1.08;;;22.40;99.90;;;;;;4862052;29;20064;-75
2022/07/29 06:13:47;;;;;;;6.32;1.55;;;22.50;99.90;;;;;;4878812;29;20061;-74
2022/07/29 06:16:14;;;;;;;3.60;1.38;;;22.50;99.90;;;;;;4887427;29;20060;-74
2022/07/29 06:18:41;;;;;;;2.95;1.40;;;22.50;99.90;;;;;;4896441;29;20084;-75
2022/07/29 06:21:10;;;;;;;19.13;2.67;;;22.50;99.90;;;;;;4897503;29;20596;-75
2022/07/29 06:23:38;;;;;;;4.25;0.98;;;22.30;99.90;;;;;;4897853;29;20549;-74
2022/07/29 06:26:07;;;;;;;3.33;0.93;;;22.40;99.90;;;;;;4896149;29;20411;-74
2022/07/29 06:28:34;;;;;;;3.80;0.88;;;22.40;99.90;;;;;;4897572;29;20110;-75
2022/07/29 06:31:01;;;;;;;4.05;0.70;;;22.40;99.90;;;;;;4896404;29;20044;-75
2022/07/29 06:33:29;;;;;;;2.55;0.70;;;22.50;99.90;;;;;;4880279;29;20147;-75
2022/07/29 06:35:56;;;;;;;1.42;0.77;;;22.50;99.90;;;;;;4895298;29;20071;-75
2022/07/29 06:38:23;;;;;;;1.48;0.70;;;22.60;99.90;;;;;;4897338;29;20143;-75
2022/07/29 06:41:03;;;;;;;2.30;0.68;;;22.60;99.90;;;;;;4896760;29;20056;-75
2022/07/29 06:43:35;;;;;;;0.80;0.80;;;22.80;99.90;;;;;;4895502;29;20147;-75
2022/07/29 06:46:04;;;;;;;1.65;0.60;;;22.90;99.90;;;;;;4896784;29;20059;-75
2022/07/29 06:48:32;;;;;;;4.18;1.25;;;23.00;99.90;;;;;;4897168;29;20442;-75
2022/07/29 06:50:59;;;;;;;2.85;0.73;;;23.10;99.90;;;;;;4880394;29;20077;-76
2022/07/29 06:53:28;;;;;;;1.48;0.90;;;23.20;99.90;;;;;;4877055;29;20549;-74
2022/07/29 06:55:55;;;;;;;0.80;0.70;;;23.30;99.90;;;;;;4889412;29;20068;-74
2022/07/29 06:58:22;;;;;;;2.78;1.00;;;23.40;99.90;;;;;;4900048;29;20059;-75
2022/07/29 07:00:58;;;;;;;1.48;0.70;;;23.50;99.90;;;;;;4910519;29;20067;-75
2022/07/29 07:03:25;;;;;;;1.92;0.80;;;23.60;99.90;;;;;;4915291;29;20139;-75
2022/07/29 07:05:54;;;;;;;2.25;0.85;;;23.60;99.90;;;;;;4900779;29;20409;-74
2022/07/29 07:08:22;;;;;;;3.40;1.02;;;23.60;99.90;;;;;;4914151;29;20056;-75
2022/07/29 07:10:50;;;;;;;2.38;0.90;;;23.60;99.90;;;;;;4903484;29;20067;-75
2022/07/29 07:13:18;;;;;;;5.72;0.93;;;23.70;99.90;;;;;;4889302;29;20096;-75
2022/07/29 07:15:47;;;;;;;7.10;1.13;;;23.80;99.90;;;;;;4903633;29;20055;-75
2022/07/29 07:18:16;;;;;;;5.53;0.90;;;24.00;99.90;;;;;;4902009;29;20040;-74
2022/07/29 07:20:44;;;;;;;6.82;0.90;;;24.20;99.90;;;;;;4904178;29;20052;-74
2022/07/29 07:23:11;;;;;;;1.58;0.85;;;24.50;99.90;;;;;;4905553;29;20523;-74
2022/07/29 07:25:39;;;;;;;3.38;0.70;;;24.70;99.90;;;;;;4913916;29;20087;-74
2022/07/29 07:28:06;;;;;;;0.80;0.70;;;25.00;99.90;;;;;;4914159;29;20056;-75
2022/07/29 07:30:33;;;;;;;4.50;0.90;;;25.40;99.90;;;;;;4913496;29;20100;-74
2022/07/29 07:33:01;;;;;;;2.92;0.88;;;25.60;99.90;;;;;;4911003;29;20053;-74
2022/07/29 07:35:30;;;;;;;2.38;0.93;;;25.80;99.40;;;;;;4892680;29;20060;-74
2022/07/29 07:37:57;;;;;;;3.05;1.05;;;25.60;99.00;;;;;;4894707;29;20048;-77
2022/07/29 07:40:25;;;;;;;1.00;0.82;;;25.30;98.50;;;;;;4895159;29;20054;-79
2022/07/29 07:42:52;;;;;;;3.80;0.90;;;24.80;96.60;;;;;;4895908;29;20049;-79
2022/07/29 07:45:19;;;;;;;3.22;1.10;;;24.40;96.50;;;;;;4894673;29;20100;-78
2022/07/29 07:47:47;;;;;;;3.47;0.73;;;23.90;97.80;;;;;;4896074;29;20117;-80
2022/07/29 07:50:14;;;;;;;3.17;0.80;;;23.50;98.80;;;;;;4895784;29;20536;-78
2022/07/29 07:52:50;;;;;;;1.52;0.90;;;23.20;99.90;;;;;;4896136;29;20426;-81
2022/07/29 07:55:18;;;;;;;1.08;0.70;;;23.10;99.90;;;;;;4895106;29;20044;-79
2022/07/29 07:57:45;;;;;;;5.00;0.63;;;23.00;99.90;;;;;;4895940;29;20474;-79
2022/07/29 08:00:13;;;;;;;4.88;0.70;;;23.00;99.40;;;;;;4895589;29;20076;-77
2022/07/29 08:02:42;;;;;;;2.55;0.70;;;23.20;98.10;;;;;;4895919;29;20079;-77
2022/07/29 08:05:11;;;;;;;5.40;0.70;;;23.50;96.40;;;;;;4894988;29;20067;-76
2022/07/29 08:07:39;;;;;;;3.17;0.70;;;24.00;95.70;;;;;;4883313;29;20442;-75
2022/07/29 08:10:08;;;;;;;3.60;0.77;;;24.40;94.50;;;;;;4887709;29;20489;-76
2022/07/29 08:12:35;;;;;;;1.80;0.55;;;24.70;93.20;;;;;;4875988;29;20060;-77
2022/07/29 08:15:03;;;;;;;4.50;0.80;;;25.00;92.40;;;;;;4877077;29;20470;-77
2022/07/29 08:17:31;;;;;;;1.95;0.70;;;25.30;91.40;;;;;;4877224;29;20064;-77
2022/07/29 08:19:58;;;;;;;1.92;0.60;;;25.70;91.00;;;;;;4876356;29;20076;-77
2022/07/29 08:22:25;;;;;;;57.22;42.15;;;26.20;89.40;;;;;;4876935;29;20068;-76
2022/07/29 08:24:56;;;;;;;4.50;0.88;;;26.70;85.80;;;;;;4876859;29;20064;-76
2022/07/29 08:27:26;;;;;;;1.45;1.00;;;26.90;81.00;;;;;;4885346;29;20152;-76
2022/07/29 08:29:55;;;;;;;2.50;0.60;;;27.00;78.90;;;;;;4893755;29;20541;-76
2022/07/29 08:32:22;;;;;;;0.70;0.60;;;27.60;76.50;;;;;;4900347;29;20067;-76
2022/07/29 08:34:50;;;;;;;3.17;1.35;;;28.60;74.50;;;;;;4911575;29;20053;-76
2022/07/29 08:37:17;;;;;;;2.83;0.82;;;29.10;73.60;;;;;;4896764;29;20048;-76
2022/07/29 08:39:44;;;;;;;2.42;0.90;;;29.40;70.90;;;;;;4893242;29;20060;-75
2022/07/29 08:42:12;;;;;;;3.95;1.00;;;29.60;69.60;;;;;;4908643;29;20564;-76
2022/07/29 08:44:40;;;;;;;2.83;1.05;;;29.80;69.10;;;;;;4881936;29;20123;-76
2022/07/29 08:47:07;;;;;;;2.65;0.60;;;30.10;67.60;;;;;;4897668;29;20528;-76
2022/07/29 08:49:36;;;;;;;3.33;0.80;;;30.50;65.80;;;;;;4894818;29;20064;-76
2022/07/29 08:52:03;;;;;;;2.15;0.93;;;30.70;65.00;;;;;;4894797;29;20060;-76
2022/07/29 08:54:31;;;;;;;1.13;0.80;;;30.70;63.40;;;;;;4893877;29;20076;-77
2022/07/29 08:56:59;;;;;;;3.33;0.85;;;31.20;63.30;;;;;;4894737;29;20119;-76
2022/07/29 08:59:28;;;;;;;1.98;1.00;;;31.80;60.60;;;;;;4894866;29;20053;-77
2022/07/29 09:01:59;;;;;;;3.22;0.80;;;32.60;60.20;;;;;;4894553;29;20067;-77
2022/07/29 09:04:28;;;;;;;;;;;32.90;57.70;;;;;;4895303;29;20049;-77
2022/07/29 09:06:57;;;;;;;2.92;0.75;;;33.20;57.20;;;;;;4864525;29;19928;-77
2022/07/29 09:09:25;;;;;;;0.85;0.73;;;33.10;56.80;;;;;;4882164;29;20105;-77
2022/07/29 09:11:53;;;;;;;0.77;0.60;;;32.80;56.40;;;;;;4888848;29;20108;-77
2022/07/29 09:14:20;;;;;;;2.63;0.90;;;32.60;57.20;;;;;;4894797;29;20075;-77
2022/07/29 09:16:53;;;;;;;2.10;1.00;;;32.30;58.30;;;;;;4893290;29;20060;-77
2022/07/29 09:19:30;;;;;;;1.17;0.95;;;31.60;58.50;;;;;;4894559;29;20056;-77
2022/07/29 09:21:58;;;;;;;5.85;0.95;;;30.80;58.70;;;;;;4898094;29;20056;-76
2022/07/29 09:24:27;;;;;;;2.45;0.93;;;30.30;60.40;;;;;;4896902;29;20163;-76
2022/07/29 09:26:54;;;;;;;3.38;0.80;;;29.80;61.00;;;;;;4896905;29;20076;-76
2022/07/29 09:29:23;;;;;;;3.60;0.73;;;29.30;61.00;;;;;;4897909;29;20139;-76
2022/07/29 09:31:52;;;;;;;3.63;1.05;;;28.90;61.10;;;;;;4896315;29;20522;-78
2022/07/29 09:34:24;;;;;;;3.13;0.88;;;28.60;61.60;;;;;;4897104;29;20080;-76
2022/07/29 09:36:54;;;;;;;3.25;0.80;;;28.50;63.90;;;;;;4897730;29;20067;-76
2022/07/29 09:39:29;;;;;;;2.63;1.00;;;28.30;64.10;;;;;;4898419;29;20104;-76
2022/07/29 09:41:59;;;;;;;2.70;0.85;;;28.40;64.80;;;;;;4896478;29;20573;-76
2022/07/29 09:44:27;;;;;;;2.47;0.90;;;28.40;65.30;;;;;;4879646;29;20505;-76
2022/07/29 09:47:02;;;;;;;1.67;0.82;;;28.20;67.60;;;;;;4894412;29;20517;-77
2022/07/29 09:49:29;;;;;;;2.17;0.85;;;27.80;67.50;;;;;;4896076;29;20108;-76
2022/07/29 09:52:10;;;;;;;7.03;0.80;;;27.50;69.10;;;;;;4896211;29;20459;-76
2022/07/29 09:54:38;;;;;;;3.40;0.77;;;27.20;70.70;;;;;;4887020;29;20097;-76
2022/07/29 09:57:06;;;;;;;6.25;1.05;;;27.20;71.50;;;;;;4876288;29;20596;-76
2022/07/29 09:59:34;;;;;;;3.60;0.50;;;27.40;72.20;;;;;;4897568;29;20049;-76
2022/07/29 10:02:01;;;;;;;5.00;0.80;;;27.60;70.80;;;;;;4895921;29;20521;-76
2022/07/29 10:04:43;;;;;;;0.63;0.50;;;27.40;69.80;;;;;;4896016;29;20533;-77
2022/07/29 10:07:12;;;;;;;1.77;0.65;;;27.00;70.30;;;;;;4895478;29;20074;-77
2022/07/29 10:09:39;;;;;;;1.95;0.50;;;26.50;71.50;;;;;;4880354;29;20146;-75
2022/07/29 10:12:09;;;;;;;1.65;1.02;;;26.00;73.30;;;;;;4897204;29;20044;-77
2022/07/29 10:14:37;;;;;;;4.45;0.52;;;25.80;74.30;;;;;;4896794;29;20051;-76
2022/07/29 10:17:05;;;;;;;7.90;0.70;;;26.40;74.10;;;;;;4895667;29;20062;-76
2022/07/29 10:19:33;;;;;;;2.08;0.85;;;26.50;73.30;;;;;;4895916;29;20141;-78
2022/07/29 10:22:01;;;;;;;3.33;1.17;;;26.50;73.80;;;;;;4897018;29;20095;-77
2022/07/29 10:24:32;;;;;;;7.38;0.80;;;27.00;72.40;;;;;;4896891;29;20052;-77
2022/07/29 10:27:01;;;;;;;6.70;0.80;;;27.60;71.30;;;;;;4895550;29;20159;-77
2022/07/29 10:29:31;;;;;;;2.67;0.80;;;28.20;68.80;;;;;;4897638;29;20437;-77
2022/07/29 10:32:12;;;;;;;2.25;0.60;;;28.50;67.90;;;;;;4894907;29;20049;-78
2022/07/29 10:34:58;;;;;;;4.15;0.80;;;28.90;66.50;;;;;;4896883;29;20521;-76
2022/07/29 10:37:34;;;;;;;4.30;0.52;;;28.90;64.60;;;;;;4896778;29;20056;-77
2022/07/29 10:42:56;;;;;;;4.38;0.60;;;28.80;64.90;;;;;;4887883;29;20514;-77
2022/07/29 10:45:23;;;;;;;3.17;0.52;;;28.70;64.60;;;;;;4895469;29;20048;-76
2022/07/29 10:48:04;;;;;;;5.57;0.75;;;28.60;64.90;;;;;;4896510;29;20569;-76
2022/07/29 10:50:53;;;;;;;2.05;0.77;;;28.30;64.40;;;;;;4896395;29;20052;-76
2022/07/29 10:53:21;;;;;;;4.93;1.23;;;28.10;64.90;;;;;;4896794;29;20505;-77
2022/07/29 10:55:50;;;;;;;2.70;0.55;;;28.20;64.90;;;;;;4896668;29;20422;-78
2022/07/29 10:58:19;;;;;;;2.10;0.60;;;28.40;62.40;;;;;;4895384;29;20056;-76
2022/07/29 11:00:48;;;;;;;2.42;0.73;;;28.40;62.50;;;;;;4896226;29;20050;-75
2022/07/29 11:03:47;;;;;;;2.28;0.70;;;28.00;62.80;;;;;;4895063;29;20067;-75
2022/07/29 11:06:15;;;;;;;3.42;0.65;;;27.70;63.90;;;;;;4895115;29;20056;-77
2022/07/29 11:08:42;;;;;;;7.97;1.10;;;27.40;64.60;;;;;;4896956;29;20458;-77
2022/07/29 11:11:36;;;;;;;2.40;0.50;;;27.30;65.90;;;;;;4879267;29;20059;-77
2022/07/29 11:14:04;;;;;;;4.68;0.65;;;27.30;65.70;;;;;;4895233;29;20074;-76
2022/07/29 11:17:02;;;;;;;4.60;0.85;;;27.20;64.70;;;;;;4894974;29;20091;-76
2022/07/29 11:19:29;;;;;;;1.92;0.40;;;27.00;64.70;;;;;;4895094;29;20055;-77
2022/07/29 11:21:57;;;;;;;4.00;0.50;;;26.90;64.40;;;;;;4895943;29;20052;-78
2022/07/29 11:24:28;;;;;;;3.80;0.40;;;26.80;64.30;;;;;;4896067;29;20048;-77
2022/07/29 11:27:17;;;;;;;4.32;0.98;;;26.60;64.60;;;;;;4901102;29;20151;-77
2022/07/29 11:29:52;;;;;;;3.05;0.73;;;26.50;64.20;;;;;;4896187;29;20057;-77
2022/07/29 11:32:21;;;;;;;4.05;0.50;;;26.20;65.80;;;;;;4896011;29;20052;-77
2022/07/29 11:34:50;;;;;;;5.82;1.05;;;26.10;66.10;;;;;;4894517;29;20048;-77
2022/07/29 11:37:24;;;;;;;14.32;1.70;;;26.20;66.30;;;;;;4895495;29;20067;-78
2022/07/29 11:40:18;;;;;;;8.52;0.82;;;26.10;66.80;;;;;;4895722;29;20057;-77
2022/07/29 11:42:53;;;;;;;4.60;0.80;;;25.90;69.10;;;;;;4890398;29;20064;-76
2022/07/29 11:45:31;;;;;;;6.10;1.20;;;25.80;68.60;;;;;;4891892;29;20065;-77
2022/07/29 11:48:00;;;;;;;5.03;0.70;;;25.70;68.70;;;;;;4895790;29;20131;-78
2022/07/29 11:50:35;;;;;;;4.55;0.88;;;25.80;68.60;;;;;;4895634;29;20044;-77
2022/07/29 11:53:10;;;;;;;13.25;0.77;;;25.90;69.80;;;;;;4894218;29;20052;-77
2022/07/29 11:55:39;;;;;;;4.07;0.85;;;26.40;70.60;;;;;;4894311;29;20059;-77
2022/07/29 11:58:08;;;;;;;9.00;0.63;;;27.00;68.20;;;;;;4894031;29;20245;-78
2022/07/29 12:00:37;;;;;;;4.63;0.82;;;27.00;67.50;;;;;;4891417;29;20049;-77
2022/07/29 12:03:08;;;;;;;3.45;0.55;;;27.00;66.80;;;;;;4895360;29;20124;-76
2022/07/29 12:05:42;;;;;;;2.63;0.82;;;27.60;66.30;;;;;;4895519;29;20087;-76
2022/07/29 12:08:13;;;;;;;5.18;0.90;;;29.20;64.60;;;;;;4895209;29;20430;-76
2022/07/29 12:10:42;;;;;;;2.43;0.60;;;30.30;59.20;;;;;;4895552;29;20087;-76
2022/07/29 12:13:11;;;;;;;3.85;0.70;;;31.00;57.20;;;;;;4895593;29;20117;-76
2022/07/29 12:15:38;;;;;;;4.85;0.93;;;31.10;55.60;;;;;;4895477;29;20053;-76
2022/07/29 12:18:13;;;;;;;3.35;0.55;;;30.70;55.10;;;;;;4887694;29;20112;-76
2022/07/29 12:20:40;;;;;;;5.72;0.88;;;29.90;55.00;;;;;;4895441;29;20547;-76
2022/07/29 12:23:11;;;;;;;12.10;1.05;;;29.40;56.00;;;;;;4895263;29;20075;-77
2022/07/29 12:25:40;;;;;;;7.45;1.35;;;29.30;56.50;;;;;;4894678;29;20402;-78
2022/07/29 12:28:09;;;;;;;6.25;0.63;;;29.40;57.60;;;;;;4873765;29;20044;-76
2022/07/29 12:30:40;;;;;;;6.63;1.10;;;29.30;57.90;;;;;;4893896;29;20521;-77
2022/07/29 12:33:17;;;;;;;5.68;0.75;;;29.70;56.90;;;;;;4895195;29;20055;-77
2022/07/29 12:35:46;;;;;;;9.00;0.80;;;29.60;57.10;;;;;;4893990;29;20514;-76
2022/07/29 12:38:15;;;;;;;10.32;1.30;;;29.30;58.80;;;;;;4893952;29;20147;-77
2022/07/29 12:40:42;;;;;;;8.05;1.27;;;30.60;58.80;;;;;;4895080;29;20526;-77
2022/07/29 12:43:11;;;;;;;0.90;0.60;;;32.20;54.60;;;;;;4893852;29;20112;-77
2022/07/29 12:45:44;;;;;;;5.72;0.77;;;33.50;50.90;;;;;;4895171;29;20100;-78
2022/07/29 12:48:11;;;;;;;4.20;0.60;;;34.50;50.40;;;;;;4892691;29;20143;-77
2022/07/29 12:50:54;;;;;;;5.93;0.60;;;34.90;48.00;;;;;;4891700;29;20143;-77
2022/07/29 12:53:21;;;;;;;12.38;1.55;;;35.20;45.80;;;;;;4894812;29;20480;-77
2022/07/29 12:55:51;;;;;;;3.67;0.65;;;35.10;46.60;;;;;;4888100;29;20086;-77
2022/07/29 12:58:29;;;;;;;4.72;0.50;;;35.40;47.30;;;;;;4885682;29;20073;-77
2022/07/29 13:01:06;;;;;;;1.55;0.60;;;35.50;46.50;;;;;;4885197;29;20143;-77
2022/07/29 13:03:48;;;;;;;9.80;0.70;;;35.80;46.00;;;;;;4890396;29;20053;-79
2022/07/29 13:06:35;;;;;;;;;;;36.00;44.70;;;;;;4887912;29;20124;-77
2022/07/29 13:09:05;;;;;;;5.20;0.90;;;35.90;45.70;;;;;;4898456;29;19955;-78
2022/07/29 13:11:36;;;;;;;3.72;0.80;;;36.00;45.80;;;;;;4897601;29;20056;-77